Aroma, Indiana
Current Conditions -  °F | °C
As of 3:55 PM on Thursday 20 Nov 2014 (Local Time) from KTYQ Reporting Station
Overcast Overcast  
Wind Chill: -9°   Ceiling: 3600
Heat Index: -2°   Visibility: 10mi
Dew Point: -10°   Wind: 16mph
Humidity: 55%   Direction: 250°WSW
Pressure: 30.12"   Gusts: 22mph
Location:  40.1832°N, 85.9359°W
Report Text: KTYQ 202055Z AUTO 25014G19KT 10SM BKN036 OVC043 M02/M10 A3012 RMK AO2 T10201099
Loading
Personal Weather Stations






























Interactive Weather Map New forecast layout! Learn more

10-Day Weather Forecast

Advertisements
Track Severe Weather on mobile